Fort Clark, North Dakota
Current Conditions -  °F | °C
As of 6:15 AM on Monday 26 Jan 2015 (Local Time) from KHZE Reporting Station
Broken Clouds Broken Clouds  
Wind Chill: 29°   Ceiling: 12000
Heat Index: 36°   Visibility: 10mi
Dew Point: 32°   Wind: 8mph
Humidity: 87%   Direction: 230°SW
Pressure: 29.88"   Gusts: NA
Location:  47.1146°N, 101.343°W
Report Text: KHZE 261215Z AUTO 23007KT 10SM BKN120 02/00 A2988 RMK AO2
Loading
Personal Weather Stations






























Interactive Weather Map New forecast layout! Learn more

10-Day Weather Forecast

Advertisements
Track Severe Weather on mobile